Time;durP1;ratioP1;P1;durP2;ratioP2;P2;SDS_P1;SDS_P2;PMS_P1;PMS_P2;Temp;Humidity;BMP_temperature;BMP_pressure;BME280_temperature;BME280_humidity;BME280_pressure;Samples;Min_cycle;Max_cycle;Signal;HPM_P1;HPM_P2
2023/10/19 14:59:48;;;;;;;;;;;;;;;;;;5133206;27;19912;-70
2023/10/19 15:02:14;;;;;;;;;;;;;;;;;;5132577;28;20006;-68
2023/10/19 15:04:39;;;;;;;;;;;;;;;;;;5133357;28;19911;-69
2023/10/19 15:07:04;;;;;;;;;;;;;;;;;;5133166;28;19907;-69
2023/10/19 15:09:30;;;;;;;;;;;;;;;;;;5132497;28;20356;-69
2023/10/19 15:11:55;;;;;;;;;;;;;;;;;;5131852;28;19912;-70
2023/10/19 15:14:20;;;;;;;;;;;;;;;;;;5131314;28;20271;-69
2023/10/19 15:16:45;;;;;;;;;;;;;;;;;;5132953;28;19939;-69
2023/10/19 15:19:13;;;;;;;;;;;;;;;;;;5132664;28;20360;-69
2023/10/19 15:21:38;;;;;;;;;;;;;;;;;;5132484;28;19908;-69
2023/10/19 15:24:05;;;;;;;;;;;;;;;;;;5132132;28;19929;-69
2023/10/19 15:26:30;;;;;;;;;;;;;;;;;;5133008;28;19908;-69
2023/10/19 15:28:55;;;;;;;;;;;;;;;;;;5132029;28;20317;-69
2023/10/19 15:31:21;;;;;;;;;;;;;;;;;;5132396;28;19908;-69
2023/10/19 15:33:47;;;;;;;;;;;;;;;;;;5131946;28;19908;-69
2023/10/19 15:36:12;;;;;;;;;;;;;;;;;;5131969;28;19968;-69
2023/10/19 15:38:37;;;;;;;;;;;;;;;;;;5131846;28;20356;-69
2023/10/19 15:41:03;;;;;;;;;;;;;;;;;;5131569;27;20261;-69
2023/10/19 15:43:28;;;;;;;;;;;;;;;;;;5131918;28;19907;-69
2023/10/19 15:45:53;;;;;;;;;;;;;;;;;;5131833;28;19931;-69
2023/10/19 15:48:19;;;;;;;;;;;;;;;;;;5132102;28;20276;-69
2023/10/19 15:50:44;;;;;;;;;;;;;;;;;;5132512;28;20006;-69
2023/10/19 15:53:10;;;;;;;;;;;;;;;;;;5131567;28;19919;-69
2023/10/19 15:55:35;;;;;;;;;;;;;;;;;;5131893;28;19907;-69
2023/10/19 15:58:00;;;;;;;;;;;;;;;;;;5131018;28;20371;-70
2023/10/19 16:00:25;;;;;;;;;;;;;;;;;;5131477;28;19914;-69
2023/10/19 16:02:51;;;;;;;;;;;;;;;;;;5130779;28;19999;-70
2023/10/19 16:05:16;;;;;;;;;;;;;;;;;;5130484;28;20368;-69
2023/10/19 16:07:41;;;;;;;;;;;;;;;;;;5131074;28;19995;-69
2023/10/19 16:10:08;;;;;;;;;;;;;;;;;;5123581;28;19908;-69
2023/10/19 16:12:33;;;;;;;;;;;;;;;;;;5117589;28;19931;-69
2023/10/19 16:14:59;;;;;;;;;;;;;;;;;;5117245;28;20356;-70
2023/10/19 16:17:24;;;;;;;;;;;;;;;;;;5117471;28;19954;-69
2023/10/19 16:19:50;;;;;;;;;;;;;;;;;;5118048;28;19967;-69
2023/10/19 16:22:15;;;;;;;;;;;;;;;;;;5117368;28;20249;-70
2023/10/19 16:24:40;;;;;;;;;;;;;;;;;;5117434;28;20006;-69
2023/10/19 16:27:07;;;;;;;;;;;;;;;;;;5117934;28;19930;-69
2023/10/19 16:29:32;;;;;;;;;;;;;;;;;;5117237;28;19908;-69
2023/10/19 16:31:59;;;;;;;;;;;;;;;;;;5117583;28;19908;-69
2023/10/19 16:34:24;;;;;;;;;;;;;;;;;;5116930;28;19912;-69
2023/10/19 16:36:49;;;;;;;;;;;;;;;;;;5117210;28;19908;-69
2023/10/19 16:39:17;;;;;;;;;;;;;;;;;;5116786;28;19999;-69
2023/10/19 16:41:42;;;;;;;;;;;;;;;;;;5117639;28;19912;-69
2023/10/19 16:44:08;;;;;;;;;;;;;;;;;;5117010;28;20011;-69
2023/10/19 16:46:33;;;;;;;;;;;;;;;;;;5116974;28;19915;-69
2023/10/19 16:48:58;;;;;;;;;;;;;;;;;;5116658;28;19908;-69
2023/10/19 16:51:23;;;;;;;;;;;;;;;;;;5116735;28;20048;-69
2023/10/19 16:53:48;;;;;;;;;;;;;;;;;;5116852;28;19955;-69
2023/10/19 16:56:13;;;;;;;;;;;;;;;;;;5116515;28;19908;-69
2023/10/19 16:58:39;;;;;;;;;;;;;;;;;;5117035;28;20283;-69
2023/10/19 17:01:04;;;;;;;;;;;;;;;;;;5116404;28;19907;-69
2023/10/19 17:03:29;;;;;;;;;;;;;;;;;;5116637;28;19918;-69
2023/10/19 17:05:54;;;;;;;;;;;;;;;;;;5117204;28;20295;-69
2023/10/19 17:08:19;;;;;;;;;;;;;;;;;;5116728;28;19999;-70
2023/10/19 17:10:44;;;;;;;;;;;;;;;;;;5116490;28;20348;-69
2023/10/19 17:13:10;;;;;;;;;;;;;;;;;;5116348;28;20003;-69
2023/10/19 17:15:35;;;;;;;;;;;;;;;;;;5116418;28;19915;-69
2023/10/19 17:18:00;;;;;;;;;;;;;;;;;;5116468;28;20417;-69
2023/10/19 17:20:27;;;;;;;;;;;;;;;;;;5115340;28;20356;-71
2023/10/19 17:22:53;;;;;;;;;;;;;;;;;;5114876;28;20399;-69
2023/10/19 17:25:19;;;;;;;;;;;;;;;;;;5116413;28;19922;-69
2023/10/19 17:27:45;;;;;;;;;;;;;;;;;;5116130;28;19958;-69
2023/10/19 17:30:13;;;;;;;;;;;;;;;;;;5114633;28;19977;-69
2023/10/19 17:32:38;;;;;;;;;;;;;;;;;;5115819;28;20364;-69
2023/10/19 17:35:05;;;;;;;;;;;;;;;;;;5116010;28;19908;-69
2023/10/19 17:37:30;;;;;;;;;;;;;;;;;;5115907;28;19911;-69
2023/10/19 17:39:55;;;;;;;;;;;;;;;;;;5116445;28;19908;-69
2023/10/19 17:42:21;;;;;;;;;;;;;;;;;;5116200;28;19911;-69
2023/10/19 17:44:47;;;;;;;;;;;;;;;;;;5116141;28;19907;-69
2023/10/19 17:47:12;;;;;;;;;;;;;;;;;;5115765;28;20245;-69
2023/10/19 17:49:37;;;;;;;;;;;;;;;;;;5115679;28;19912;-68
2023/10/19 17:52:02;;;;;;;;;;;;;;;;;;5115287;28;20276;-69
2023/10/19 17:54:28;;;;;;;;;;;;;;;;;;5116158;28;19973;-69
2023/10/19 17:56:53;;;;;;;;;;;;;;;;;;5115735;28;19961;-69
2023/10/19 17:59:18;;;;;;;;;;;;;;;;;;5115475;28;19931;-69
2023/10/19 18:07:11;;;;;;;;;;;;;;;;;;5115254;28;20276;-69
2023/10/19 18:09:37;;;;;;;;;;;;;;;;;;5115909;28;19908;-70
2023/10/19 18:12:02;;;;;;;;;;;;;;;;;;5114980;28;19914;-68
2023/10/19 18:14:27;;;;;;;;;;;;;;;;;;5115431;28;19908;-69
2023/10/19 18:16:53;;;;;;;;;;;;;;;;;;5115463;28;19961;-69
2023/10/19 18:19:18;;;;;;;;;;;;;;;;;;5115175;28;19918;-68
2023/10/19 18:24:31;;;;;;;;;;;;;;;;;;5115663;28;19914;-68
2023/10/19 18:26:56;;;;;;;;;;;;;;;;;;5115716;28;19908;-69
2023/10/19 18:29:22;;;;;;;;;;;;;;;;;;5113777;28;19931;-69
2023/10/19 18:31:47;;;;;;;;;;;;;;;;;;5115018;28;19908;-69
2023/10/19 18:34:12;;;;;;;;;;;;;;;;;;5115160;28;19907;-69
2023/10/19 18:36:37;;;;;;;;;;;;;;;;;;5115490;28;20256;-68
2023/10/19 18:39:03;;;;;;;;;;;;;;;;;;5114577;28;19919;-69
2023/10/19 18:41:29;;;;;;;;;;;;;;;;;;5114886;28;19947;-69
2023/10/19 18:43:58;;;;;;;;;;;;;;;;;;5114532;28;19987;-69
2023/10/19 18:46:24;;;;;;;;;;;;;;;;;;5115083;28;19907;-70
2023/10/19 18:48:49;;;;;;;;;;;;;;;;;;5114805;28;20264;-68
2023/10/19 18:51:14;;;;;;;;;;;;;;;;;;5113720;28;19908;-69
2023/10/19 18:53:40;;;;;;;;;;;;;;;;;;5114556;28;19951;-69
2023/10/19 18:56:08;;;;;;;;;;;;;;;;;;5114292;28;19911;-69
2023/10/19 18:58:33;;;;;;;;;;;;;;;;;;5114411;28;19919;-69
2023/10/19 19:00:59;;;;;;;;;;;;;;;;;;5114524;28;19912;-68
2023/10/19 19:03:25;;;;;;;;;;;;;;;;;;5114206;28;19915;-69
2023/10/19 19:05:51;;;;;;;;;;;;;;;;;;5114073;28;20287;-69
2023/10/19 19:08:16;;;;;;;;;;;;;;;;;;5114326;28;19908;-69
2023/10/19 19:10:41;;;;;;;;;;;;;;;;;;5114592;28;19907;-69
2023/10/19 19:13:06;;;;;;;;;;;;;;;;;;5114573;28;20328;-70
2023/10/19 19:15:32;;;;;;;;;;;;;;;;;;5115282;28;19915;-69
2023/10/19 19:17:57;;;;;;;;;;;;;;;;;;5114727;28;19938;-69
2023/10/19 19:20:23;;;;;;;;;;;;;;;;;;5115494;28;19908;-69
2023/10/19 19:22:48;;;;;;;;;;;;;;;;;;5114971;28;19994;-69
2023/10/19 19:25:13;;;;;;;;;;;;;;;;;;5114447;28;20375;-70
2023/10/19 19:27:39;;;;;;;;;;;;;;;;;;5114193;28;19947;-69
2023/10/19 19:30:06;;;;;;;;;;;;;;;;;;5114401;28;20014;-69
2023/10/19 19:32:31;;;;;;;;;;;;;;;;;;5114298;28;20364;-69
2023/10/19 19:34:57;;;;;;;;;;;;;;;;;;5114336;28;19915;-69
2023/10/19 19:37:22;;;;;;;;;;;;;;;;;;5114353;28;19912;-70
2023/10/19 19:39:47;;;;;;;;;;;;;;;;;;5112999;28;20369;-70
2023/10/19 19:42:12;;;;;;;;;;;;;;;;;;5114003;28;19915;-70
2023/10/19 19:44:39;;;;;;;;;;;;;;;;;;5113551;28;20360;-70
2023/10/19 19:47:07;;;;;;;;;;;;;;;;;;5118096;28;19908;-70
2023/10/19 19:49:32;;;;;;;;;;;;;;;;;;5118098;28;19908;-69
2023/10/19 19:52:01;;;;;;;;;;;;;;;;;;5118283;28;19908;-69
2023/10/19 19:54:26;;;;;;;;;;;;;;;;;;5117974;28;19908;-70
2023/10/19 19:56:51;;;;;;;;;;;;;;;;;;5117078;28;20375;-70
2023/10/19 19:59:17;;;;;;;;;;;;;;;;;;5118060;28;19965;-69
2023/10/19 20:01:42;;;;;;;;;;;;;;;;;;5117801;28;19953;-70
2023/10/19 20:04:07;;;;;;;;;;;;;;;;;;5117591;28;19912;-69
2023/10/19 20:06:33;;;;;;;;;;;;;;;;;;5117777;28;19915;-69
2023/10/19 20:08:58;;;;;;;;;;;;;;;;;;5118309;28;20237;-75
2023/10/19 20:11:23;;;;;;;;;;;;;;;;;;5117712;28;19961;-69
2023/10/19 20:13:49;;;;;;;;;;;;;;;;;;5117326;28;19911;-70
2023/10/19 20:16:14;;;;;;;;;;;;;;;;;;5117964;28;19958;-74
2023/10/19 20:18:39;;;;;;;;;;;;;;;;;;5118055;28;19927;-69
2023/10/19 20:21:04;;;;;;;;;;;;;;;;;;5117600;28;19915;-69
2023/10/19 20:23:30;;;;;;;;;;;;;;;;;;5117436;28;20364;-70
2023/10/19 20:25:55;;;;;;;;;;;;;;;;;;5117012;28;19915;-69
2023/10/19 20:28:20;;;;;;;;;;;;;;;;;;5116500;28;19914;-69
2023/10/19 20:30:46;;;;;;;;;;;;;;;;;;5116004;28;19914;-70
2023/10/19 20:33:12;;;;;;;;;;;;;;;;;;5116325;28;19994;-69
2023/10/19 20:35:37;;;;;;;;;;;;;;;;;;5117208;28;20003;-70
2023/10/19 20:38:05;;;;;;;;;;;;;;;;;;5116824;28;19937;-68
2023/10/19 20:40:33;;;;;;;;;;;;;;;;;;5116887;28;20376;-69
2023/10/19 20:42:58;;;;;;;;;;;;;;;;;;5117931;28;20304;-68
2023/10/19 20:45:25;;;;;;;;;;;;;;;;;;5117067;28;19954;-69
2023/10/19 20:47:51;;;;;;;;;;;;;;;;;;5116888;28;19907;-69
2023/10/19 20:50:16;;;;;;;;;;;;;;;;;;5116777;28;19908;-69
2023/10/19 20:52:42;;;;;;;;;;;;;;;;;;5117093;28;19908;-69
2023/10/19 20:55:07;;;;;;;;;;;;;;;;;;5116808;28;19914;-69
2023/10/19 20:57:32;;;;;;;;;;;;;;;;;;5116384;28;19911;-69
2023/10/19 20:59:57;;;;;;;;;;;;;;;;;;5116779;28;20006;-69
2023/10/19 21:02:22;;;;;;;;;;;;;;;;;;5116617;28;19984;-69
2023/10/19 21:04:49;;;;;;;;;;;;;;;;;;5116651;28;19908;-69
2023/10/19 21:07:14;;;;;;;;;;;;;;;;;;5117650;28;19915;-69
2023/10/19 21:09:39;;;;;;;;;;;;;;;;;;5116828;28;19908;-69
2023/10/19 21:12:05;;;;;;;;;;;;;;;;;;5116752;28;19914;-69
2023/10/19 21:14:30;;;;;;;;;;;;;;;;;;5116472;28;19914;-69
2023/10/19 21:16:55;;;;;;;;;;;;;;;;;;5116963;28;19914;-69
2023/10/19 21:19:20;;;;;;;;;;;;;;;;;;5115929;28;19916;-68
2023/10/19 21:21:45;;;;;;;;;;;;;;;;;;5116300;28;19908;-69
2023/10/19 21:24:10;;;;;;;;;;;;;;;;;;5116230;28;19947;-69
2023/10/19 21:26:36;;;;;;;;;;;;;;;;;;5116102;28;19965;-69
2023/10/19 21:29:01;;;;;;;;;;;;;;;;;;5115464;28;19908;-69
2023/10/19 21:31:26;;;;;;;;;;;;;;;;;;5116115;28;19961;-69
2023/10/19 21:33:52;;;;;;;;;;;;;;;;;;5115950;28;20341;-69
2023/10/19 21:36:17;;;;;;;;;;;;;;;;;;5114513;28;19914;-69
2023/10/19 21:38:42;;;;;;;;;;;;;;;;;;5113548;28;20265;-69
2023/10/19 21:41:07;;;;;;;;;;;;;;;;;;5113597;28;19908;-69
2023/10/19 21:43:32;;;;;;;;;;;;;;;;;;5113583;28;20267;-69
2023/10/19 21:45:58;;;;;;;;;;;;;;;;;;5113870;28;19907;-69
2023/10/19 21:48:23;;;;;;;;;;;;;;;;;;5114362;28;19908;-69
2023/10/19 21:50:49;;;;;;;;;;;;;;;;;;5114443;28;19943;-68
2023/10/19 21:53:15;;;;;;;;;;;;;;;;;;5115440;28;19914;-68
2023/10/19 21:55:40;;;;;;;;;;;;;;;;;;5115243;28;19912;-69
2023/10/19 21:58:06;;;;;;;;;;;;;;;;;;5115385;28;19919;-68
2023/10/19 22:00:33;;;;;;;;;;;;;;;;;;5115767;28;19908;-68
2023/10/19 22:02:58;;;;;;;;;;;;;;;;;;5115429;28;19908;-69
2023/10/19 22:05:23;;;;;;;;;;;;;;;;;;5115485;28;19915;-68
2023/10/19 22:07:48;;;;;;;;;;;;;;;;;;5114935;28;19919;-69
2023/10/19 22:10:14;;;;;;;;;;;;;;;;;;5115158;28;19908;-68
2023/10/19 22:12:39;;;;;;;;;;;;;;;;;;5115405;28;19911;-68
2023/10/19 22:15:04;;;;;;;;;;;;;;;;;;5115317;28;19908;-68
2023/10/19 22:17:29;;;;;;;;;;;;;;;;;;5115615;28;19912;-68
2023/10/19 22:19:55;;;;;;;;;;;;;;;;;;5115459;28;19922;-68
2023/10/19 22:22:20;;;;;;;;;;;;;;;;;;5114900;28;19915;-68
2023/10/19 22:24:47;;;;;;;;;;;;;;;;;;5114916;28;19914;-68
2023/10/19 22:27:13;;;;;;;;;;;;;;;;;;5115735;28;19958;-68
2023/10/19 22:29:39;;;;;;;;;;;;;;;;;;5115078;28;19955;-68
2023/10/19 22:32:04;;;;;;;;;;;;;;;;;;5115010;28;19907;-69
2023/10/19 22:34:29;;;;;;;;;;;;;;;;;;5114959;28;19912;-68
2023/10/19 22:36:54;;;;;;;;;;;;;;;;;;5114983;28;19949;-68
2023/10/19 22:39:19;;;;;;;;;;;;;;;;;;5115519;28;19920;-68
2023/10/19 22:41:44;;;;;;;;;;;;;;;;;;5114851;28;19953;-68
2023/10/19 22:44:10;;;;;;;;;;;;;;;;;;5114883;28;19914;-68
2023/10/19 22:46:35;;;;;;;;;;;;;;;;;;5115564;28;20341;-68
2023/10/19 22:49:00;;;;;;;;;;;;;;;;;;5114729;28;19958;-68
2023/10/19 22:51:25;;;;;;;;;;;;;;;;;;5114800;28;19954;-68
2023/10/19 22:53:50;;;;;;;;;;;;;;;;;;5114691;28;19908;-68
2023/10/19 22:56:15;;;;;;;;;;;;;;;;;;5114492;28;19908;-69
2023/10/19 22:58:40;;;;;;;;;;;;;;;;;;5114244;28;19926;-69
2023/10/19 23:01:06;;;;;;;;;;;;;;;;;;5114426;28;20280;-68
2023/10/19 23:03:31;;;;;;;;;;;;;;;;;;5114933;28;19911;-68
2023/10/19 23:05:56;;;;;;;;;;;;;;;;;;5114591;28;19935;-68
2023/10/19 23:08:22;;;;;;;;;;;;;;;;;;5114364;28;20053;-68
2023/10/19 23:10:47;;;;;;;;;;;;;;;;;;5114742;28;19915;-69
2023/10/19 23:13:16;;;;;;;;;;;;;;;;;;5114576;28;19917;-68
2023/10/19 23:15:45;;;;;;;;;;;;;;;;;;5114760;28;20344;-69
2023/10/19 23:18:10;;;;;;;;;;;;;;;;;;5113462;28;19963;-68
2023/10/19 23:20:35;;;;;;;;;;;;;;;;;;5116526;28;20012;-68
2023/10/19 23:23:04;;;;;;;;;;;;;;;;;;5118904;28;19907;-69
2023/10/19 23:25:30;;;;;;;;;;;;;;;;;;5118489;28;20080;-68
2023/10/19 23:27:55;;;;;;;;;;;;;;;;;;5118837;28;19908;-69
2023/10/19 23:30:21;;;;;;;;;;;;;;;;;;5118125;28;19908;-68
2023/10/19 23:32:46;;;;;;;;;;;;;;;;;;5118130;28;19969;-68
2023/10/19 23:35:12;;;;;;;;;;;;;;;;;;5118363;28;20237;-68
2023/10/19 23:37:37;;;;;;;;;;;;;;;;;;5117924;28;20017;-68
2023/10/19 23:40:02;;;;;;;;;;;;;;;;;;5118288;28;19907;-68
2023/10/19 23:42:28;;;;;;;;;;;;;;;;;;5117981;28;19954;-68
2023/10/19 23:44:53;;;;;;;;;;;;;;;;;;5117908;28;19908;-68
2023/10/19 23:47:18;;;;;;;;;;;;;;;;;;5118182;28;20370;-68
2023/10/19 23:49:43;;;;;;;;;;;;;;;;;;5118709;28;19908;-68
2023/10/19 23:52:11;;;;;;;;;;;;;;;;;;5118239;28;19912;-68
2023/10/19 23:54:36;;;;;;;;;;;;;;;;;;5117798;28;19918;-68
2023/10/19 23:57:02;;;;;;;;;;;;;;;;;;5117711;28;19908;-68
2023/10/19 23:59:27;;;;;;;;;;;;;;;;;;5118172;28;20337;-68
